White Fox, Canada
Current Conditions -  °F | °C
As of 4:00 PM on Wednesday 28 Jan 2015 (Local Time) from CYBU Reporting Station
Light Snow Light Snow  
Wind Chill: -1°   Ceiling: 1300
Heat Index:   Visibility: 9mi
Dew Point:   Wind: 6mph
Humidity: 85%   Direction: 280°W
Pressure: 30.17"   Gusts: NA
Location:  53.45°N, 104.08°W
Report Text: CYBU 282200Z AUTO 28005KT 9SM -SN OVC013 M13/M15 A3017 RMK SLP252
Loading
Personal Weather Stations






























Interactive Weather Map New forecast layout! Learn more

10-Day Weather Forecast

Advertisements
Track Severe Weather on mobile